Time;durP1;ratioP1;P1;durP2;ratioP2;P2;SDS_P1;SDS_P2;PMS_P1;PMS_P2;Temp;Humidity;BMP_temperature;BMP_pressure;BME280_temperature;BME280_humidity;BME280_pressure;Samples;Min_cycle;Max_cycle;Signal;HPM_P1;HPM_P2
2023/09/23 00:00:13;;;;;;;15.90;2.00;;;;;;;;;;5075514;28;20395;-77
2023/09/23 00:02:42;;;;;;;15.80;2.10;;;;;;;;;;5054611;28;20973;-79
2023/09/23 00:05:12;;;;;;;15.77;2.70;;;;;;;;;;5074658;28;20947;-77
2023/09/23 00:07:39;;;;;;;15.77;2.00;;;;;;;;;;5076695;28;20478;-78
2023/09/23 00:10:08;;;;;;;17.17;2.35;;;;;;;;;;5071925;28;20405;-79
2023/09/23 00:12:35;;;;;;;16.38;2.60;;;;;;;;;;5067454;28;20475;-78
2023/09/23 00:15:05;;;;;;;16.50;2.40;;;;;;;;;;5071166;28;20486;-79
2023/09/23 00:17:32;;;;;;;15.02;2.10;;;;;;;;;;5074535;28;20437;-79
2023/09/23 00:20:00;;;;;;;15.40;2.00;;;;;;;;;;5078084;28;20411;-80
2023/09/23 00:22:27;;;;;;;16.00;2.40;;;;;;;;;;5066547;28;20896;-78
2023/09/23 00:24:54;;;;;;;16.13;2.10;;;;;;;;;;5079466;28;20783;-79
2023/09/23 00:27:21;;;;;;;15.00;2.20;;;;;;;;;;5067208;28;20418;-79
2023/09/23 00:29:49;;;;;;;15.50;2.30;;;;;;;;;;5074357;28;20508;-77
2023/09/23 00:32:17;;;;;;;14.45;1.75;;;;;;;;;;5075123;28;20422;-78
2023/09/23 00:34:44;;;;;;;16.35;2.20;;;;;;;;;;5073927;28;20882;-80
2023/09/23 00:37:10;;;;;;;15.90;2.30;;;;;;;;;;5075985;28;20925;-79
2023/09/23 00:39:38;;;;;;;16.10;2.10;;;;;;;;;;5073294;28;20399;-79
2023/09/23 00:42:04;;;;;;;16.75;2.10;;;;;;;;;;5073589;28;20409;-78
2023/09/23 00:44:31;;;;;;;14.80;2.03;;;;;;;;;;5083094;28;20414;-78
2023/09/23 00:46:58;;;;;;;16.67;2.30;;;;;;;;;;5061675;28;20424;-79
2023/09/23 00:49:27;;;;;;;15.98;2.38;;;;;;;;;;5072262;28;20418;-80
2023/09/23 00:51:53;;;;;;;15.30;2.17;;;;;;;;;;5071958;28;20792;-80
2023/09/23 00:54:21;;;;;;;16.70;2.42;;;;;;;;;;5066673;28;20421;-79
2023/09/23 00:56:48;;;;;;;15.90;2.65;;;;;;;;;;5073517;28;20412;-78
2023/09/23 00:59:17;;;;;;;15.38;2.20;;;;;;;;;;5058204;28;20415;-79
2023/09/23 01:01:48;;;;;;;15.98;2.30;;;;;;;;;;5074659;28;20405;-78
2023/09/23 01:04:18;;;;;;;15.70;2.20;;;;;;;;;;5073020;28;20421;-79
2023/09/23 01:06:48;;;;;;;15.50;2.40;;;;;;;;;;5075402;28;20435;-79
2023/09/23 01:09:20;;;;;;;15.95;2.45;;;;;;;;;;5079274;28;20807;-81
2023/09/23 01:11:50;;;;;;;15.23;2.50;;;;;;;;;;5051040;28;20421;-80
2023/09/23 01:14:25;;;;;;;15.60;2.30;;;;;;;;;;5076323;28;20443;-80
2023/09/23 01:16:52;;;;;;;17.60;2.67;;;;;;;;;;5079625;28;20411;-77
2023/09/23 01:19:20;;;;;;;17.00;2.72;;;;;;;;;;5078746;28;20496;-78
2023/09/23 01:21:49;;;;;;;19.25;2.40;;;;;;;;;;5081013;28;20413;-79
2023/09/23 01:24:17;;;;;;;15.60;2.30;;;;;;;;;;5075166;28;20415;-80
2023/09/23 01:26:46;;;;;;;21.20;3.30;;;;;;;;;;5067037;28;20453;-77
2023/09/23 01:29:13;;;;;;;17.13;2.80;;;;;;;;;;5063886;28;20448;-79
2023/09/23 01:31:39;;;;;;;20.13;2.90;;;;;;;;;;5078909;28;20504;-79
2023/09/23 01:34:06;;;;;;;16.15;2.95;;;;;;;;;;5079704;28;20406;-77
2023/09/23 01:36:33;;;;;;;17.63;2.90;;;;;;;;;;5080364;28;20410;-78
2023/09/23 01:39:00;;;;;;;17.40;2.67;;;;;;;;;;5071984;28;20960;-79
2023/09/23 01:41:28;;;;;;;17.13;2.80;;;;;;;;;;5069857;28;20405;-80
2023/09/23 01:43:55;;;;;;;16.80;2.70;;;;;;;;;;5077413;28;20418;-80
2023/09/23 01:46:21;;;;;;;16.33;2.60;;;;;;;;;;5077246;28;20402;-78
2023/09/23 01:48:48;;;;;;;16.10;2.30;;;;;;;;;;5075340;28;20399;-77
2023/09/23 01:51:17;;;;;;;15.80;2.13;;;;;;;;;;5076001;28;20881;-81
2023/09/23 01:53:44;;;;;;;17.10;2.22;;;;;;;;;;5075400;28;20422;-80
2023/09/23 01:56:11;;;;;;;19.83;2.57;;;;;;;;;;5084514;28;20414;-78
2023/09/23 01:58:41;;;;;;;15.98;2.10;;;;;;;;;;5069784;28;20887;-80
2023/09/23 02:01:09;;;;;;;17.60;2.90;;;;;;;;;;5068333;28;20432;-77
2023/09/23 02:03:35;;;;;;;18.90;2.40;;;;;;;;;;5073612;28;20412;-80
2023/09/23 02:06:02;;;;;;;16.10;1.90;;;;;;;;;;5062396;28;20908;-80
2023/09/23 02:08:29;;;;;;;15.67;2.43;;;;;;;;;;5080247;28;20450;-81
2023/09/23 02:10:56;;;;;;;16.38;2.10;;;;;;;;;;5086929;28;20449;-80
2023/09/23 02:13:23;;;;;;;16.03;2.27;;;;;;;;;;5072801;28;20420;-81
2023/09/23 02:15:52;;;;;;;16.27;2.03;;;;;;;;;;5077488;28;20401;-80
2023/09/23 02:18:19;;;;;;;15.90;2.17;;;;;;;;;;5077215;28;20424;-80
2023/09/23 02:20:46;;;;;;;15.73;2.20;;;;;;;;;;5080457;28;20504;-81
2023/09/23 02:23:14;;;;;;;17.70;2.47;;;;;;;;;;5068856;28;20942;-80
2023/09/23 02:25:42;;;;;;;17.33;2.00;;;;;;;;;;5070748;28;20984;-79
2023/09/23 02:28:09;;;;;;;15.32;2.17;;;;;;;;;;5076513;28;20410;-79
2023/09/23 02:30:36;;;;;;;18.45;2.00;;;;;;;;;;5082294;28;20402;-79
2023/09/23 02:33:04;;;;;;;15.10;2.00;;;;;;;;;;5075359;28;20802;-77
2023/09/23 02:35:31;;;;;;;16.35;2.15;;;;;;;;;;5057450;28;20918;-81
2023/09/23 02:37:58;;;;;;;15.40;2.00;;;;;;;;;;5074444;28;20403;-80
2023/09/23 02:40:27;;;;;;;15.25;2.00;;;;;;;;;;5071817;28;20908;-78
2023/09/23 02:42:57;;;;;;;16.38;2.50;;;;;;;;;;5067935;28;20429;-80
2023/09/23 02:45:24;;;;;;;15.90;2.13;;;;;;;;;;5072609;28;20427;-81
2023/09/23 02:47:52;;;;;;;16.90;2.42;;;;;;;;;;5056321;28;20821;-81
2023/09/23 02:50:20;;;;;;;15.50;2.10;;;;;;;;;;5079284;28;20445;-78
2023/09/23 02:52:50;;;;;;;15.80;2.13;;;;;;;;;;5076667;28;20756;-81
2023/09/23 02:55:20;;;;;;;16.52;2.97;;;;;;;;;;5075187;28;20406;-80
2023/09/23 02:57:53;;;;;;;16.08;2.28;;;;;;;;;;5083150;28;20920;-79
2023/09/23 03:00:21;;;;;;;16.05;2.30;;;;;;;;;;5060889;28;20904;-80
2023/09/23 03:02:52;;;;;;;16.15;2.40;;;;;;;;;;5077873;28;20418;-80
2023/09/23 03:05:26;;;;;;;17.58;1.95;;;;;;;;;;5073698;28;20420;-78
2023/09/23 03:07:57;;;;;;;15.50;2.10;;;;;;;;;;5073279;28;20419;-76
2023/09/23 03:10:40;;;;;;;17.40;2.10;;;;;;;;;;5072119;28;20516;-76
2023/09/23 03:13:11;;;;;;;15.80;2.30;;;;;;;;;;5058309;28;20497;-78
2023/09/23 03:16:08;;;;;;;16.03;2.60;;;;;;;;;;5073223;28;20407;-78
2023/09/23 03:18:38;;;;;;;18.73;2.30;;;;;;;;;;5078111;28;20395;-77
2023/09/23 03:21:10;;;;;;;16.08;2.20;;;;;;;;;;5067856;28;20429;-77
2023/09/23 03:23:39;;;;;;;15.70;2.60;;;;;;;;;;5074021;28;20400;-77
2023/09/23 03:26:06;;;;;;;18.30;2.60;;;;;;;;;;5072949;28;21284;-77
2023/09/23 03:28:33;;;;;;;19.67;2.20;;;;;;;;;;5077388;28;20751;-78
2023/09/23 03:31:00;;;;;;;18.05;2.85;;;;;;;;;;5082813;28;20833;-76
2023/09/23 03:33:27;;;;;;;17.05;2.50;;;;;;;;;;5074217;28;20417;-75
2023/09/23 03:35:54;;;;;;;16.30;2.70;;;;;;;;;;5061632;28;20499;-76
2023/09/23 03:38:22;;;;;;;16.27;2.38;;;;;;;;;;5074030;28;20439;-77
2023/09/23 03:40:52;;;;;;;17.27;2.65;;;;;;;;;;5063713;28;20417;-77
2023/09/23 03:43:21;;;;;;;16.48;2.47;;;;;;;;;;5076284;28;20437;-76
2023/09/23 03:45:47;;;;;;;16.95;2.40;;;;;;;;;;5060866;28;20937;-76
2023/09/23 03:48:14;;;;;;;18.17;2.25;;;;;;;;;;5071937;28;20467;-76
2023/09/23 03:50:41;;;;;;;16.10;2.75;;;;;;;;;;5072690;28;20465;-75
2023/09/23 03:53:08;;;;;;;16.05;2.10;;;;;;;;;;5048856;28;20479;-77
2023/09/23 03:55:36;;;;;;;16.17;2.40;;;;;;;;;;5061605;28;20413;-77
2023/09/23 03:58:04;;;;;;;17.60;2.45;;;;;;;;;;5071200;28;20492;-76
2023/09/23 04:00:33;;;;;;;16.38;2.58;;;;;;;;;;5065868;28;20428;-75
2023/09/23 04:03:00;;;;;;;19.85;2.92;;;;;;;;;;5076274;28;20412;-74
2023/09/23 04:05:30;;;;;;;18.88;3.15;;;;;;;;;;5073515;28;20417;-77
2023/09/23 04:07:57;;;;;;;19.42;3.28;;;;;;;;;;5059321;28;20965;-76
2023/09/23 04:10:24;;;;;;;17.98;3.00;;;;;;;;;;5078189;28;20405;-72
2023/09/23 04:12:55;;;;;;;19.10;2.73;;;;;;;;;;5069998;28;20479;-75
2023/09/23 04:15:22;;;;;;;17.45;2.70;;;;;;;;;;5074560;28;20414;-76
2023/09/23 04:17:48;;;;;;;17.98;2.67;;;;;;;;;;5064436;28;20415;-77
2023/09/23 04:20:15;;;;;;;16.60;2.40;;;;;;;;;;5071950;28;20500;-76
2023/09/23 04:22:42;;;;;;;18.42;2.60;;;;;;;;;;5068514;28;20457;-76
2023/09/23 04:25:10;;;;;;;18.27;2.85;;;;;;;;;;5066879;28;20429;-76
2023/09/23 04:27:37;;;;;;;15.23;2.50;;;;;;;;;;5072067;28;20415;-75
2023/09/23 04:30:09;;;;;;;16.30;2.30;;;;;;;;;;5077850;28;20402;-74
2023/09/23 04:32:36;;;;;;;15.88;2.40;;;;;;;;;;5083214;28;20868;-76
2023/09/23 04:35:03;;;;;;;17.33;2.28;;;;;;;;;;5066497;28;20408;-74
2023/09/23 04:37:30;;;;;;;16.55;2.40;;;;;;;;;;5073841;28;20412;-77
2023/09/23 04:39:57;;;;;;;15.10;2.30;;;;;;;;;;5067417;28;20569;-75
2023/09/23 04:42:24;;;;;;;17.15;2.50;;;;;;;;;;5082298;28;20509;-76
2023/09/23 04:44:50;;;;;;;18.60;3.08;;;;;;;;;;5083139;28;20411;-75
2023/09/23 04:47:19;;;;;;;17.60;3.30;;;;;;;;;;5076516;28;20498;-75
2023/09/23 04:49:46;;;;;;;16.88;2.80;;;;;;;;;;5079346;28;20406;-75
2023/09/23 04:52:15;;;;;;;16.60;2.75;;;;;;;;;;5067637;28;20420;-76
2023/09/23 04:54:42;;;;;;;16.02;2.60;;;;;;;;;;5069373;28;20475;-75
2023/09/23 04:57:09;;;;;;;15.70;2.70;;;;;;;;;;5088549;28;20882;-74
2023/09/23 04:59:35;;;;;;;16.77;2.40;;;;;;;;;;5069374;28;20410;-76
2023/09/23 05:02:03;;;;;;;16.83;3.15;;;;;;;;;;5074583;28;20485;-74
2023/09/23 05:04:31;;;;;;;17.08;2.65;;;;;;;;;;5077588;28;20394;-76
2023/09/23 05:07:00;;;;;;;16.15;2.30;;;;;;;;;;5081796;28;20425;-75
2023/09/23 05:09:27;;;;;;;16.47;2.63;;;;;;;;;;5081215;28;20945;-76
2023/09/23 05:11:55;;;;;;;17.95;2.95;;;;;;;;;;5075173;28;20502;-76
2023/09/23 05:14:21;;;;;;;16.35;2.60;;;;;;;;;;5059131;28;20417;-74
2023/09/23 05:16:50;;;;;;;17.98;2.90;;;;;;;;;;5072964;28;20418;-75
2023/09/23 05:19:19;;;;;;;19.63;2.90;;;;;;;;;;5079006;28;20497;-75
2023/09/23 05:21:47;;;;;;;20.27;3.22;;;;;;;;;;5063101;28;20996;-75
2023/09/23 05:24:13;;;;;;;17.42;2.88;;;;;;;;;;5072133;28;20410;-76
2023/09/23 05:26:40;;;;;;;17.40;2.80;;;;;;;;;;5073964;28;20483;-74
2023/09/23 05:29:07;;;;;;;17.45;2.80;;;;;;;;;;5082201;28;20398;-75
2023/09/23 05:31:36;;;;;;;17.33;3.17;;;;;;;;;;5072924;28;20907;-74
2023/09/23 05:34:03;;;;;;;19.65;2.95;;;;;;;;;;5073300;28;20404;-76
2023/09/23 05:36:30;;;;;;;16.65;2.40;;;;;;;;;;5080372;28;20448;-76
2023/09/23 05:38:59;;;;;;;17.80;2.70;;;;;;;;;;5077087;28;20414;-76
2023/09/23 05:41:25;;;;;;;18.27;2.65;;;;;;;;;;5080303;28;20410;-77
2023/09/23 05:43:52;;;;;;;17.80;2.78;;;;;;;;;;5079563;28;20457;-75
2023/09/23 05:46:19;;;;;;;18.80;2.60;;;;;;;;;;5080463;28;20460;-76
2023/09/23 05:48:48;;;;;;;20.50;2.90;;;;;;;;;;5080777;28;20795;-76
2023/09/23 05:51:15;;;;;;;15.57;2.60;;;;;;;;;;5076956;28;20406;-75
2023/09/23 05:53:42;;;;;;;17.50;2.38;;;;;;;;;;5076553;28;20414;-74
2023/09/23 05:56:10;;;;;;;16.77;2.28;;;;;;;;;;5080024;28;20402;-76
2023/09/23 05:58:37;;;;;;;15.73;2.00;;;;;;;;;;5059354;28;20812;-75
2023/09/23 06:01:04;;;;;;;16.70;2.30;;;;;;;;;;5072866;28;20470;-76
2023/09/23 06:03:30;;;;;;;24.07;2.90;;;;;;;;;;5079001;28;20410;-78
2023/09/23 06:05:58;;;;;;;15.40;2.33;;;;;;;;;;5075818;28;20424;-77
2023/09/23 06:08:24;;;;;;;17.00;2.30;;;;;;;;;;5086031;28;20445;-78
2023/09/23 06:10:52;;;;;;;16.85;3.20;;;;;;;;;;5075288;28;20453;-78
2023/09/23 06:13:20;;;;;;;17.70;3.20;;;;;;;;;;5076545;28;20415;-79
2023/09/23 06:15:47;;;;;;;15.50;2.05;;;;;;;;;;5063696;28;20513;-76
2023/09/23 06:18:13;;;;;;;18.13;2.67;;;;;;;;;;5078561;28;20521;-78
2023/09/23 06:20:40;;;;;;;19.85;2.85;;;;;;;;;;5074189;28;20439;-77
2023/09/23 06:23:07;;;;;;;16.98;2.50;;;;;;;;;;5073359;28;20460;-78
2023/09/23 06:25:33;;;;;;;15.60;2.08;;;;;;;;;;5080128;28;20410;-78
2023/09/23 06:28:00;;;;;;;17.23;3.03;;;;;;;;;;5081950;28;20414;-77
2023/09/23 06:30:28;;;;;;;17.27;2.60;;;;;;;;;;5083619;28;20443;-77
2023/09/23 06:32:55;;;;;;;18.00;2.92;;;;;;;;;;5072364;28;20465;-78
2023/09/23 06:35:21;;;;;;;20.50;3.40;;;;;;;;;;5079696;28;20426;-76
2023/09/23 06:37:48;;;;;;;18.83;3.08;;;;;;;;;;5067073;28;20908;-76
2023/09/23 06:40:15;;;;;;;16.90;2.63;;;;;;;;;;5064071;28;20762;-76
2023/09/23 06:42:44;;;;;;;18.65;2.58;;;;;;;;;;5087116;28;20412;-80
2023/09/23 06:45:11;;;;;;;16.92;2.40;;;;;;;;;;5074170;28;20409;-79
2023/09/23 06:47:39;;;;;;;16.63;2.85;;;;;;;;;;5075666;28;20792;-79
2023/09/23 06:50:06;;;;;;;20.50;3.65;;;;;;;;;;5077061;28;20421;-77
2023/09/23 06:52:33;;;;;;;16.20;2.75;;;;;;;;;;5079524;28;20406;-79
2023/09/23 06:55:00;;;;;;;16.73;2.60;;;;;;;;;;5081162;28;20938;-77
2023/09/23 06:57:26;;;;;;;16.30;2.70;;;;;;;;;;5074127;28;20501;-78
2023/09/23 06:59:53;;;;;;;17.05;2.65;;;;;;;;;;5076742;28;20403;-78
2023/09/23 07:02:20;;;;;;;17.45;2.83;;;;;;;;;;5073138;28;20967;-79
2023/09/23 07:04:48;;;;;;;16.58;2.30;;;;;;;;;;5075542;28;20473;-78
2023/09/23 07:07:15;;;;;;;15.60;2.00;;;;;;;;;;5073756;28;20428;-78
2023/09/23 07:09:41;;;;;;;17.33;2.80;;;;;;;;;;5068222;28;20412;-80
2023/09/23 07:12:12;;;;;;;18.40;2.20;;;;;;;;;;5075825;28;20504;-79
2023/09/23 07:14:39;;;;;;;15.40;2.00;;;;;;;;;;5063083;28;20459;-79
2023/09/23 07:17:06;;;;;;;16.05;2.15;;;;;;;;;;5072585;28;20415;-78
2023/09/23 07:19:33;;;;;;;16.10;1.90;;;;;;;;;;5073169;28;20452;-80
2023/09/23 07:22:01;;;;;;;17.20;2.00;;;;;;;;;;5071353;28;20446;-79
2023/09/23 07:24:29;;;;;;;15.80;2.80;;;;;;;;;;5073201;28;20798;-80
2023/09/23 07:26:57;;;;;;;18.52;2.20;;;;;;;;;;5074661;28;20450;-80
2023/09/23 07:29:24;;;;;;;16.33;1.92;;;;;;;;;;5085016;28;20431;-81
2023/09/23 07:31:52;;;;;;;16.50;2.00;;;;;;;;;;5054893;28;20462;-81
2023/09/23 07:34:19;;;;;;;16.83;2.40;;;;;;;;;;5071190;28;20782;-80
2023/09/23 07:36:45;;;;;;;16.85;1.80;;;;;;;;;;5072125;28;20475;-80
2023/09/23 07:39:15;;;;;;;18.45;2.40;;;;;;;;;;5071874;28;20746;-78
2023/09/23 07:41:41;;;;;;;14.80;1.70;;;;;;;;;;5066095;28;20410;-79
2023/09/23 07:44:10;;;;;;;16.20;2.00;;;;;;;;;;5056859;28;20408;-79
2023/09/23 07:46:37;;;;;;;15.57;2.42;;;;;;;;;;5075509;28;20451;-80
2023/09/23 07:49:05;;;;;;;15.50;2.00;;;;;;;;;;5081632;28;20961;-83
2023/09/23 07:51:31;;;;;;;18.30;2.10;;;;;;;;;;5081063;28;20407;-79
2023/09/23 07:54:00;;;;;;;20.08;2.03;;;;;;;;;;5080243;28;20451;-78
2023/09/23 07:56:28;;;;;;;21.30;2.07;;;;;;;;;;5071343;28;20501;-79
2023/09/23 07:58:56;;;;;;;14.73;1.80;;;;;;;;;;5069441;28;20413;-80
2023/09/23 08:01:22;;;;;;;17.30;2.00;;;;;;;;;;5082150;28;20791;-81
2023/09/23 08:03:50;;;;;;;18.00;2.00;;;;;;;;;;5078503;28;20442;-80
2023/09/23 08:06:17;;;;;;;16.58;1.95;;;;;;;;;;5072504;28;20433;-77
2023/09/23 08:08:44;;;;;;;16.60;2.50;;;;;;;;;;5070226;28;20439;-78
2023/09/23 08:11:13;;;;;;;14.35;1.58;;;;;;;;;;5072110;28;20501;-79
2023/09/23 08:13:41;;;;;;;15.40;1.60;;;;;;;;;;5075806;28;20408;-81
2023/09/23 08:16:08;;;;;;;19.45;1.90;;;;;;;;;;5069214;28;20914;-80
2023/09/23 08:18:35;;;;;;;15.77;1.38;;;;;;;;;;5073865;28;20446;-78
2023/09/23 08:21:02;;;;;;;19.02;2.03;;;;;;;;;;5074384;28;20419;-79
2023/09/23 08:23:29;;;;;;;14.65;1.55;;;;;;;;;;5065145;28;20881;-80
2023/09/23 08:25:56;;;;;;;17.40;1.80;;;;;;;;;;5076909;28;20400;-81
2023/09/23 08:28:24;;;;;;;17.80;1.40;;;;;;;;;;5078210;28;20577;-79
2023/09/23 08:30:52;;;;;;;16.10;1.70;;;;;;;;;;5057989;28;20441;-81
2023/09/23 08:33:19;;;;;;;15.40;1.70;;;;;;;;;;5078273;28;20412;-77
2023/09/23 08:35:47;;;;;;;15.50;1.60;;;;;;;;;;5077567;28;20426;-78
2023/09/23 08:38:14;;;;;;;15.45;1.50;;;;;;;;;;5077837;28;20564;-76
2023/09/23 08:40:42;;;;;;;22.80;2.30;;;;;;;;;;5080086;28;20510;-79
2023/09/23 08:43:10;;;;;;;16.05;1.45;;;;;;;;;;5077352;28;20433;-78
2023/09/23 08:45:40;;;;;;;19.00;1.70;;;;;;;;;;5076622;28;20432;-81
2023/09/23 08:48:09;;;;;;;15.80;1.50;;;;;;;;;;5076915;28;20421;-80
2023/09/23 08:50:36;;;;;;;16.38;1.30;;;;;;;;;;5073192;28;20420;-78
2023/09/23 08:53:07;;;;;;;16.60;1.40;;;;;;;;;;5079754;28;20406;-77
2023/09/23 08:55:34;;;;;;;15.07;1.42;;;;;;;;;;5067864;28;20418;-80
2023/09/23 08:58:04;;;;;;;15.85;1.65;;;;;;;;;;5062137;28;20402;-79
2023/09/23 09:00:31;;;;;;;15.57;1.53;;;;;;;;;;5073219;28;20469;-80
2023/09/23 09:02:58;;;;;;;14.25;1.35;;;;;;;;;;5077094;28;20431;-79
2023/09/23 09:05:33;;;;;;;16.75;1.70;;;;;;;;;;5076213;28;20414;-78
2023/09/23 09:08:00;;;;;;;17.30;1.40;;;;;;;;;;5061273;28;20419;-77
2023/09/23 09:10:27;;;;;;;16.88;1.52;;;;;;;;;;5066167;28;20406;-78
2023/09/23 09:12:54;;;;;;;16.15;1.45;;;;;;;;;;5062248;28;20756;-79
2023/09/23 09:15:24;;;;;;;17.00;1.50;;;;;;;;;;5078052;28;20810;-80
2023/09/23 09:17:50;;;;;;;15.40;1.53;;;;;;;;;;5070297;28;20416;-80
2023/09/23 09:20:17;;;;;;;14.30;1.50;;;;;;;;;;5069308;28;20402;-81
2023/09/23 09:22:46;;;;;;;14.60;1.40;;;;;;;;;;5076643;28;20415;-80
2023/09/23 09:25:13;;;;;;;15.57;1.70;;;;;;;;;;5072254;28;20480;-81
2023/09/23 09:27:41;;;;;;;17.40;1.90;;;;;;;;;;5073602;28;20420;-78
2023/09/23 09:30:12;;;;;;;14.43;1.30;;;;;;;;;;5083314;28;20409;-81
2023/09/23 09:32:40;;;;;;;14.98;1.50;;;;;;;;;;5082387;28;20413;-78
2023/09/23 09:35:11;;;;;;;14.80;1.70;;;;;;;;;;5079286;28;20401;-79
2023/09/23 09:37:41;;;;;;;15.93;1.60;;;;;;;;;;5074301;28;20748;-77
2023/09/23 09:40:14;;;;;;;16.85;1.52;;;;;;;;;;5077797;28;20441;-78
2023/09/23 09:42:42;;;;;;;15.25;1.77;;;;;;;;;;5045056;28;20409;-79
2023/09/23 09:45:09;;;;;;;15.43;1.83;;;;;;;;;;5071812;28;20459;-80
2023/09/23 09:47:39;;;;;;;17.50;1.80;;;;;;;;;;5076394;28;20421;-78
2023/09/23 09:50:07;;;;;;;15.20;1.70;;;;;;;;;;5082432;28;20827;-78
2023/09/23 09:52:35;;;;;;;18.10;1.75;;;;;;;;;;5082844;28;20497;-81
2023/09/23 09:55:03;;;;;;;14.80;1.30;;;;;;;;;;5080927;28;20422;-78
2023/09/23 09:57:31;;;;;;;16.10;1.50;;;;;;;;;;5059544;28;20412;-79
2023/09/23 09:59:59;;;;;;;17.03;1.60;;;;;;;;;;5079143;28;20514;-78
2023/09/23 10:02:26;;;;;;;15.43;1.60;;;;;;;;;;5081897;28;20403;-81
2023/09/23 10:04:53;;;;;;;15.43;1.40;;;;;;;;;;5070615;28;20607;-79
2023/09/23 10:07:23;;;;;;;15.20;1.20;;;;;;;;;;5078703;28;20422;-79
2023/09/23 10:09:55;;;;;;;15.50;1.40;;;;;;;;;;5072365;28;20424;-78
2023/09/23 10:12:26;;;;;;;16.10;1.20;;;;;;;;;;5084038;28;20408;-79
2023/09/23 10:14:55;;;;;;;14.85;1.40;;;;;;;;;;5089694;28;20487;-82
2023/09/23 10:17:29;;;;;;;17.13;1.48;;;;;;;;;;5068309;28;20492;-80
2023/09/23 10:19:56;;;;;;;14.00;1.10;;;;;;;;;;5058935;28;20414;-79
2023/09/23 10:22:24;;;;;;;14.50;1.40;;;;;;;;;;5075305;28;20395;-79
2023/09/23 10:24:58;;;;;;;15.75;1.45;;;;;;;;;;5056084;28;20426;-79
2023/09/23 10:27:26;;;;;;;14.80;1.40;;;;;;;;;;5071470;28;20500;-81
2023/09/23 10:29:52;;;;;;;15.53;1.40;;;;;;;;;;5079055;28;20419;-82
2023/09/23 10:32:23;;;;;;;14.50;1.23;;;;;;;;;;5074845;28;20461;-79
2023/09/23 10:34:50;;;;;;;14.98;1.30;;;;;;;;;;5077318;28;20503;-79
2023/09/23 10:37:23;;;;;;;14.97;1.70;;;;;;;;;;5057462;28;20431;-79
2023/09/23 10:39:50;;;;;;;14.77;1.50;;;;;;;;;;5077793;28;20845;-81
2023/09/23 10:42:17;;;;;;;15.60;1.38;;;;;;;;;;5074580;28;20403;-82
2023/09/23 10:44:45;;;;;;;14.15;1.40;;;;;;;;;;5079136;28;20487;-82
2023/09/23 10:47:14;;;;;;;14.70;1.20;;;;;;;;;;5077891;28;20495;-80
2023/09/23 10:49:42;;;;;;;16.80;1.60;;;;;;;;;;5074553;28;20426;-80
2023/09/23 10:52:09;;;;;;;15.07;1.55;;;;;;;;;;5069139;28;20620;-80
2023/09/23 10:54:37;;;;;;;17.83;1.43;;;;;;;;;;5079587;28;20421;-80
2023/09/23 10:57:03;;;;;;;15.25;1.10;;;;;;;;;;5058377;28;20967;-79
2023/09/23 10:59:31;;;;;;;15.98;1.50;;;;;;;;;;5060403;28;20423;-81
2023/09/23 11:01:58;;;;;;;14.65;1.65;;;;;;;;;;5079087;28;20487;-79
2023/09/23 11:04:25;;;;;;;15.50;1.42;;;;;;;;;;5057823;28;20498;-83
2023/09/23 11:06:53;;;;;;;14.20;1.20;;;;;;;;;;5055829;28;20454;-80
2023/09/23 11:09:21;;;;;;;16.15;1.50;;;;;;;;;;5068097;28;20429;-81
2023/09/23 11:11:47;;;;;;;15.20;1.30;;;;;;;;;;5081955;28;20461;-79
2023/09/23 11:14:14;;;;;;;14.73;1.13;;;;;;;;;;5097613;28;20928;-81
2023/09/23 11:16:42;;;;;;;15.18;1.30;;;;;;;;;;5076611;28;20406;-81
2023/09/23 11:19:08;;;;;;;14.20;1.20;;;;;;;;;;5072214;28;20872;-80
2023/09/23 11:21:40;;;;;;;14.57;1.25;;;;;;;;;;5072873;28;20981;-82
2023/09/23 11:24:08;;;;;;;15.10;1.70;;;;;;;;;;5058064;28;20443;-80
2023/09/23 11:26:37;;;;;;;14.00;1.20;;;;;;;;;;5070128;28;20502;-83
2023/09/23 11:29:04;;;;;;;14.87;1.30;;;;;;;;;;5073509;28;20430;-81
2023/09/23 11:31:31;;;;;;;14.65;1.60;;;;;;;;;;5071440;28;20507;-81
2023/09/23 11:33:58;;;;;;;14.05;1.13;;;;;;;;;;5072193;28;20881;-81
2023/09/23 11:36:24;;;;;;;14.50;1.20;;;;;;;;;;5075154;28;20981;-81
2023/09/23 11:38:51;;;;;;;14.90;1.10;;;;;;;;;;5073657;28;20402;-78
2023/09/23 11:41:19;;;;;;;15.55;1.20;;;;;;;;;;5076739;28;20922;-81
2023/09/23 11:43:50;;;;;;;14.48;1.30;;;;;;;;;;5072513;28;20423;-82
2023/09/23 11:46:22;;;;;;;15.80;1.15;;;;;;;;;;5076412;28;20491;-80
2023/09/23 11:48:49;;;;;;;14.73;1.40;;;;;;;;;;5051221;28;20455;-82
2023/09/23 11:51:18;;;;;;;14.05;1.40;;;;;;;;;;5077190;28;20443;-81
2023/09/23 11:53:45;;;;;;;15.02;1.50;;;;;;;;;;5069887;28;20406;-81
2023/09/23 11:56:12;;;;;;;14.68;1.45;;;;;;;;;;5070237;28;20408;-80
2023/09/23 11:58:41;;;;;;;14.38;1.50;;;;;;;;;;5071708;28;20515;-81
2023/09/23 12:01:19;;;;;;;15.05;1.40;;;;;;;;;;5071109;28;20395;-82
2023/09/23 12:03:47;;;;;;;14.88;1.50;;;;;;;;;;5085794;28;20489;-81
2023/09/23 12:06:16;;;;;;;15.60;1.60;;;;;;;;;;5071712;28;20832;-81
2023/09/23 12:08:43;;;;;;;15.18;2.20;;;;;;;;;;5067722;28;20508;-80
2023/09/23 12:11:09;;;;;;;15.80;1.50;;;;;;;;;;5078476;28;20403;-81
2023/09/23 12:13:37;;;;;;;14.35;1.55;;;;;;;;;;5061659;28;20422;-82
2023/09/23 12:16:05;;;;;;;14.68;1.60;;;;;;;;;;5066305;28;20812;-80
2023/09/23 12:18:32;;;;;;;15.00;1.70;;;;;;;;;;5064287;28;20403;-81
2023/09/23 12:20:59;;;;;;;15.93;1.95;;;;;;;;;;5071713;28;20427;-82
2023/09/23 12:23:26;;;;;;;15.95;2.30;;;;;;;;;;5085204;28;20400;-83
2023/09/23 12:25:53;;;;;;;15.35;2.20;;;;;;;;;;5079229;28;20870;-80
2023/09/23 12:28:19;;;;;;;15.93;2.50;;;;;;;;;;5077987;28;20840;-81
2023/09/23 12:30:46;;;;;;;15.13;2.22;;;;;;;;;;5073023;28;20443;-83
2023/09/23 12:33:14;;;;;;;16.63;2.40;;;;;;;;;;5075452;28;20460;-82
2023/09/23 12:35:41;;;;;;;17.10;2.47;;;;;;;;;;5078231;28;20425;-82
2023/09/23 12:38:10;;;;;;;17.37;3.10;;;;;;;;;;5069933;28;20988;-81
2023/09/23 12:40:38;;;;;;;17.50;2.90;;;;;;;;;;5061722;28;20405;-82
2023/09/23 12:43:05;;;;;;;14.95;2.42;;;;;;;;;;5050908;28;20415;-81
2023/09/23 12:45:32;;;;;;;15.20;2.20;;;;;;;;;;5068683;28;20403;-81
2023/09/23 12:47:58;;;;;;;14.90;2.42;;;;;;;;;;5077829;28;20429;-81
2023/09/23 12:50:26;;;;;;;15.00;2.30;;;;;;;;;;5074819;28;20421;-82
2023/09/23 12:52:53;;;;;;;14.70;2.40;;;;;;;;;;5063960;28;20431;-83
2023/09/23 12:55:20;;;;;;;15.80;2.58;;;;;;;;;;5067887;28;20418;-80
2023/09/23 12:57:48;;;;;;;15.30;2.53;;;;;;;;;;5055122;28;20424;-81
2023/09/23 13:00:15;;;;;;;15.90;2.20;;;;;;;;;;5068176;28;20471;-82
2023/09/23 13:02:42;;;;;;;14.50;1.77;;;;;;;;;;5080304;28;20462;-82
2023/09/23 13:05:10;;;;;;;15.70;2.20;;;;;;;;;;5085831;28;20407;-81
2023/09/23 13:07:39;;;;;;;16.60;2.90;;;;;;;;;;5065102;28;20407;-84
2023/09/23 13:10:07;;;;;;;14.90;2.10;;;;;;;;;;5076870;28;20500;-78
2023/09/23 13:12:33;;;;;;;15.65;1.90;;;;;;;;;;5077291;28;20473;-81
2023/09/23 13:15:00;;;;;;;15.40;2.70;;;;;;;;;;5063504;28;20548;-82
2023/09/23 13:17:27;;;;;;;15.20;2.03;;;;;;;;;;5069489;28;20451;-82
2023/09/23 13:19:55;;;;;;;16.10;2.25;;;;;;;;;;5075650;28;20417;-82
2023/09/23 13:22:22;;;;;;;16.90;2.30;;;;;;;;;;5047192;28;20413;-81
2023/09/23 13:24:51;;;;;;;16.90;2.10;;;;;;;;;;5082558;28;21009;-82
2023/09/23 13:27:18;;;;;;;14.95;1.95;;;;;;;;;;5083855;28;20805;-81
2023/09/23 13:29:44;;;;;;;18.17;2.35;;;;;;;;;;5070394;28;20427;-82
2023/09/23 13:32:11;;;;;;;14.73;1.70;;;;;;;;;;5078456;28;20409;-82
2023/09/23 13:34:38;;;;;;;15.63;2.05;;;;;;;;;;5078054;28;20407;-81
2023/09/23 13:37:04;;;;;;;15.68;2.03;;;;;;;;;;5081472;28;20417;-82
2023/09/23 13:39:32;;;;;;;14.80;1.77;;;;;;;;;;5079875;28;20761;-81
2023/09/23 13:42:02;;;;;;;15.10;1.80;;;;;;;;;;5075276;28;20517;-80
2023/09/23 13:44:29;;;;;;;16.63;2.10;;;;;;;;;;5076560;28;20529;-81
2023/09/23 13:46:55;;;;;;;14.50;1.60;;;;;;;;;;5069457;28;20402;-81
2023/09/23 13:49:22;;;;;;;15.02;1.65;;;;;;;;;;5077201;28;20418;-80
2023/09/23 13:51:48;;;;;;;14.70;1.50;;;;;;;;;;5075813;28;20455;-81
2023/09/23 13:54:15;;;;;;;14.43;1.70;;;;;;;;;;5057985;28;20461;-81
2023/09/23 13:56:42;;;;;;;14.73;1.58;;;;;;;;;;5074269;28;20463;-81
2023/09/23 13:59:10;;;;;;;15.30;2.03;;;;;;;;;;5060034;28;20413;-80
2023/09/23 14:01:37;;;;;;;17.00;1.70;;;;;;;;;;5062216;28;20419;-81
2023/09/23 14:04:06;;;;;;;17.30;1.33;;;;;;;;;;5069576;28;20427;-82
2023/09/23 14:06:32;;;;;;;14.70;1.45;;;;;;;;;;5073532;28;20417;-80
2023/09/23 14:08:59;;;;;;;15.90;1.40;;;;;;;;;;5072795;28;20425;-82
2023/09/23 14:11:26;;;;;;;15.60;1.60;;;;;;;;;;5078737;28;20413;-82
2023/09/23 14:13:52;;;;;;;14.32;1.20;;;;;;;;;;5080282;28;20410;-81
2023/09/23 14:16:20;;;;;;;14.77;1.30;;;;;;;;;;5079455;28;20485;-81
2023/09/23 14:18:47;;;;;;;15.00;1.43;;;;;;;;;;5077321;28;20771;-79
2023/09/23 14:21:14;;;;;;;15.45;1.65;;;;;;;;;;5078240;28;20499;-81
2023/09/23 14:23:41;;;;;;;14.40;1.20;;;;;;;;;;5074163;28;20411;-82
2023/09/23 14:26:07;;;;;;;14.10;1.50;;;;;;;;;;5064047;28;20433;-82
2023/09/23 14:28:34;;;;;;;16.83;1.60;;;;;;;;;;5078350;28;20441;-82
2023/09/23 14:31:01;;;;;;;14.45;1.50;;;;;;;;;;5074465;28;20419;-81
2023/09/23 14:33:29;;;;;;;16.30;1.80;;;;;;;;;;5075451;28;20866;-82